Date,TemperatureHighF,TemperatureAvgF,TemperatureLowF,DewpointHighF,DewpointAvgF,DewpointLowF,HumidityHigh,HumidityAvg,HumidityLow,PressureMaxIn,PressureMinIn,WindSpeedMaxMPH,WindSpeedAvgMPH,GustSpeedMaxMPH,PrecipitationSumIn
2013-7-1,81.7,75.0,69.6,73.9,71.0,67.6,95,88,74,29.97,29.84,0,0,0,0.00
2013-7-2,80.4,75.2,72.3,74.1,72.3,70.9,95,91,78,30.17,29.96,0,0,0,0.00
2013-7-3,84.0,74.9,71.1,77.2,72.6,69.8,97,93,78,30.23,30.15,0,0,0,0.00
2013-7-4,87.3,79.0,73.0,77.5,73.5,71.2,96,84,65,30.25,30.15,0,0,0,0.00
2013-7-5,87.1,79.0,69.6,76.6,72.8,67.5,96,82,66,30.23,30.12,0,0,0,0.00
2013-7-6,90.0,80.4,70.3,77.2,73.2,68.9,97,80,62,30.19,30.06,7,0,7,0.00
2013-7-7,88.3,78.0,68.9,77.4,72.0,67.1,95,83,64,30.11,29.98,7,0,10,0.00
2013-7-8,85.5,76.1,68.4,73.8,69.9,67.1,97,82,60,30.11,30.03,0,0,0,0.00
2013-7-9,86.2,77.1,69.1,76.8,72.0,66.9,96,85,68,30.11,29.99,0,0,0,0.00
2013-7-10,86.7,78.3,73.9,78.1,73.9,70.3,96,87,67,30.01,29.86,0,0,0,0.00
2013-7-11,85.5,76.7,70.0,74.3,71.2,66.9,96,84,65,29.93,29.84,0,0,0,0.00
2013-7-12,73.8,69.9,65.5,70.3,67.3,64.2,96,92,86,30.05,29.95,0,0,1,0.06
2013-7-13,83.7,74.9,68.5,76.6,70.5,66.0,94,86,72,30.26,30.04,0,0,0,0.00
2013-7-14,88.5,79.1,72.1,77.9,73.7,70.5,97,85,63,30.34,30.25,0,0,0,0.00
2013-7-15,92.5,80.7,68.5,79.3,73.9,66.9,97,81,57,30.31,30.19,7,0,8,0.00
2013-7-16,92.7,82.2,72.1,79.7,74.6,70.7,95,79,57,30.25,30.16,0,0,0,0.00
2013-7-17,93.4,82.1,72.1,80.2,74.6,70.2,96,80,53,30.22,30.08,12,1,13,0.00
2013-7-18,95.5,83.5,71.6,82.0,76.4,70.0,96,80,58,30.12,29.99,0,0,0,0.00
2013-7-19,95.4,84.6,74.8,81.9,76.9,70.7,95,79,60,30.01,29.86,5,0,6,0.00
2013-7-20,91.2,81.3,71.8,78.6,74.2,69.3,93,80,60,29.90,29.79,0,0,0,0.00
2013-7-21,90.3,77.9,69.4,78.8,72.5,67.8,96,85,58,29.94,29.86,0,0,0,0.00
2013-7-22,87.4,77.5,70.0,77.4,72.7,68.5,97,86,68,29.93,29.75,0,0,0,0.03
2013-7-23,86.0,76.7,70.0,74.8,71.0,68.5,97,83,62,29.76,29.65,0,0,0,0.03
2013-7-24,81.9,74.5,67.5,70.9,66.9,60.4,94,78,60,29.92,29.68,0,0,1,0.00
2013-7-25,77.4,68.7,60.4,63.9,58.7,53.2,91,71,54,30.05,29.92,0,0,0,0.00
2013-7-26,82.2,69.6,56.5,68.4,61.5,54.7,96,78,51,30.11,30.02,0,0,1,0.00
2013-7-27,82.8,69.5,60.1,73.9,66.2,58.3,96,90,73,30.06,29.93,0,0,1,0.12
2013-7-28,83.5,73.8,68.5,74.1,70.1,67.6,97,89,66,29.97,29.88,0,0,0,0.13
2013-7-29,80.1,73.5,62.1,68.0,61.8,58.6,90,68,51,30.17,30.09,0,0,0,0.00
2013-7-30,81.0,69.9,57.6,69.1,62.2,55.6,95,78,57,30.25,30.14,5,0,5,0.00
2013-7-31,79.0,68.8,60.3,71.4,65.4,58.5,96,89,74,30.16,30.02,0,0,0,0.11